MHZ weather

RAF Mildenhall
Mildenhall, England, United Kingdom

Public forecast

Using degrees Celsius for public forecast. Weather courtesy of forecast.io.

Current aviation weather report (METAR) for RAF Mildenhall

Retrieved 2019/10/15 07:36 UTC (0 seconds ago):

EGUN 150736Z AUTO 24006KT 9999 OVC011 11/11 A2960 RMK AO2 SLP027

Aviation forecast (TAF) for RAF Mildenhall

Retrieved 2019-10-15 04:08 UTC (3 hours ago):

TAF EGUN 150401Z 1504/1610 24012KT 9999 BKN009 BKN015 QNH2954INS TEMPO 1504/1507 24012G20KT BKN010 BECMG 1506/1507 24012KT 9999 OVC007 QNH2958INS BECMG 1509/1510 24009KT 9999 BKN010 QNH2962INS BECMG 1514/1515 20009KT 9999 SCT015 QNH2961INS BECMG 1603/1604 17012G20KT 9999 BKN015 QNH2957INS BECMG 1605/1606 16015G25KT 9000 -RA OVC015 QNH2955INS BECMG 1609/1610 20012G20KT 5000 -DZ OVC007 QNH2955INS TX14/1515Z TN10/1601Z